sensor_id;sensor_type;location;lat;lon;timestamp;temperature;humidity
56046;DHT22;41913;51.030;3.706;2023-03-01T00:01:27;18.00;66.80
56046;DHT22;41913;51.030;3.706;2023-03-01T00:03:53;18.00;66.80
56046;DHT22;41913;51.030;3.706;2023-03-01T00:06:19;18.00;67.40
56046;DHT22;41913;51.030;3.706;2023-03-01T00:08:46;18.00;66.80
56046;DHT22;41913;51.030;3.706;2023-03-01T00:11:14;17.90;66.80
56046;DHT22;41913;51.030;3.706;2023-03-01T00:13:41;17.90;66.80
56046;DHT22;41913;51.030;3.706;2023-03-01T00:16:09;18.00;66.90
56046;DHT22;41913;51.030;3.706;2023-03-01T00:18:35;17.90;66.80
56046;DHT22;41913;51.030;3.706;2023-03-01T00:21:01;17.90;66.80
56046;DHT22;41913;51.030;3.706;2023-03-01T00:23:27;17.90;66.80
56046;DHT22;41913;51.030;3.706;2023-03-01T00:25:53;17.90;66.80
56046;DHT22;41913;51.030;3.706;2023-03-01T00:28:19;17.90;66.90
56046;DHT22;41913;51.030;3.706;2023-03-01T00:30:45;17.90;66.90
56046;DHT22;41913;51.030;3.706;2023-03-01T00:33:11;17.90;66.90
56046;DHT22;41913;51.030;3.706;2023-03-01T00:35:37;17.80;66.90
56046;DHT22;41913;51.030;3.706;2023-03-01T00:38:03;17.80;66.90
56046;DHT22;41913;51.030;3.706;2023-03-01T00:40:33;17.80;66.90
56046;DHT22;41913;51.030;3.706;2023-03-01T00:43:00;17.80;66.90
56046;DHT22;41913;51.030;3.706;2023-03-01T00:45:26;17.80;66.90
56046;DHT22;41913;51.030;3.706;2023-03-01T00:47:52;17.80;66.90
56046;DHT22;41913;51.030;3.706;2023-03-01T00:50:19;17.80;67.00
56046;DHT22;41913;51.030;3.706;2023-03-01T00:52:45;17.80;67.00
56046;DHT22;41913;51.030;3.706;2023-03-01T00:55:11;17.80;67.00
56046;DHT22;41913;51.030;3.706;2023-03-01T00:57:37;17.80;67.00
56046;DHT22;41913;51.030;3.706;2023-03-01T01:00:05;17.80;67.00
56046;DHT22;41913;51.030;3.706;2023-03-01T01:02:33;17.80;67.00
56046;DHT22;41913;51.030;3.706;2023-03-01T01:04:59;17.80;67.00
56046;DHT22;41913;51.030;3.706;2023-03-01T01:07:24;17.70;67.00
56046;DHT22;41913;51.030;3.706;2023-03-01T01:09:50;17.70;67.60
56046;DHT22;41913;51.030;3.706;2023-03-01T01:12:16;17.70;67.00
56046;DHT22;41913;51.030;3.706;2023-03-01T01:14:43;17.70;67.00
56046;DHT22;41913;51.030;3.706;2023-03-01T01:17:09;17.70;67.00
56046;DHT22;41913;51.030;3.706;2023-03-01T01:19:34;17.70;67.00
56046;DHT22;41913;51.030;3.706;2023-03-01T01:22:00;17.70;67.10
56046;DHT22;41913;51.030;3.706;2023-03-01T01:24:26;17.70;67.10
56046;DHT22;41913;51.030;3.706;2023-03-01T01:26:52;17.70;67.10
56046;DHT22;41913;51.030;3.706;2023-03-01T01:29:17;17.70;67.60
56046;DHT22;41913;51.030;3.706;2023-03-01T01:31:43;17.70;67.10
56046;DHT22;41913;51.030;3.706;2023-03-01T01:34:14;17.70;67.10
56046;DHT22;41913;51.030;3.706;2023-03-01T01:36:40;17.70;67.10
56046;DHT22;41913;51.030;3.706;2023-03-01T01:39:06;17.60;67.10
56046;DHT22;41913;51.030;3.706;2023-03-01T01:41:33;17.70;67.70
56046;DHT22;41913;51.030;3.706;2023-03-01T01:44:21;17.70;67.70
56046;DHT22;41913;51.030;3.706;2023-03-01T01:47:04;17.60;67.10
56046;DHT22;41913;51.030;3.706;2023-03-01T01:49:46;17.60;67.10
56046;DHT22;41913;51.030;3.706;2023-03-01T01:52:18;17.60;67.10
56046;DHT22;41913;51.030;3.706;2023-03-01T01:58:00;17.60;67.20
56046;DHT22;41913;51.030;3.706;2023-03-01T02:00:24;17.60;67.20
56046;DHT22;41913;51.030;3.706;2023-03-01T02:02:54;17.60;67.20
56046;DHT22;41913;51.030;3.706;2023-03-01T02:08:06;17.50;67.20
56046;DHT22;41913;51.030;3.706;2023-03-01T02:10:34;17.50;67.30
56046;DHT22;41913;51.030;3.706;2023-03-01T02:13:00;17.60;67.40
56046;DHT22;41913;51.030;3.706;2023-03-01T02:15:27;17.50;67.30
56046;DHT22;41913;51.030;3.706;2023-03-01T02:17:56;17.50;67.30
56046;DHT22;41913;51.030;3.706;2023-03-01T02:23:10;17.50;67.40
56046;DHT22;41913;51.030;3.706;2023-03-01T02:28:44;17.50;67.40
56046;DHT22;41913;51.030;3.706;2023-03-01T02:31:14;17.50;67.40
56046;DHT22;41913;51.030;3.706;2023-03-01T02:34:00;17.50;67.50
56046;DHT22;41913;51.030;3.706;2023-03-01T02:36:35;17.50;67.50
56046;DHT22;41913;51.030;3.706;2023-03-01T02:39:04;17.50;68.10
56046;DHT22;41913;51.030;3.706;2023-03-01T02:41:35;17.50;67.50
56046;DHT22;41913;51.030;3.706;2023-03-01T02:44:03;17.50;67.50
56046;DHT22;41913;51.030;3.706;2023-03-01T02:46:29;17.40;67.50
56046;DHT22;41913;51.030;3.706;2023-03-01T02:48:56;17.40;67.50
56046;DHT22;41913;51.030;3.706;2023-03-01T02:56:54;17.40;67.50
56046;DHT22;41913;51.030;3.706;2023-03-01T02:59:25;17.40;67.60
56046;DHT22;41913;51.030;3.706;2023-03-01T03:01:51;17.40;67.60
56046;DHT22;41913;51.030;3.706;2023-03-01T03:04:18;17.40;67.60
56046;DHT22;41913;51.030;3.706;2023-03-01T03:06:50;17.40;67.60
56046;DHT22;41913;51.030;3.706;2023-03-01T03:09:17;17.40;67.60
56046;DHT22;41913;51.030;3.706;2023-03-01T03:11:43;17.40;67.60
56046;DHT22;41913;51.030;3.706;2023-03-01T03:14:13;17.40;67.70
56046;DHT22;41913;51.030;3.706;2023-03-01T03:16:41;17.40;67.70
56046;DHT22;41913;51.030;3.706;2023-03-01T03:19:07;17.40;68.30
56046;DHT22;41913;51.030;3.706;2023-03-01T03:21:33;17.40;67.70
56046;DHT22;41913;51.030;3.706;2023-03-01T03:23:59;17.40;67.80
56046;DHT22;41913;51.030;3.706;2023-03-01T03:26:26;17.30;67.70
56046;DHT22;41913;51.030;3.706;2023-03-01T03:28:52;17.40;67.80
56046;DHT22;41913;51.030;3.706;2023-03-01T03:31:17;17.40;67.80
56046;DHT22;41913;51.030;3.706;2023-03-01T03:33:43;17.40;67.80
56046;DHT22;41913;51.030;3.706;2023-03-01T03:36:09;17.30;67.70
56046;DHT22;41913;51.030;3.706;2023-03-01T03:38:39;17.30;67.80
56046;DHT22;41913;51.030;3.706;2023-03-01T03:41:06;17.30;67.80
56046;DHT22;41913;51.030;3.706;2023-03-01T03:43:35;17.30;67.80
56046;DHT22;41913;51.030;3.706;2023-03-01T03:46:02;17.30;67.80
56046;DHT22;41913;51.030;3.706;2023-03-01T03:48:35;17.30;67.90
56046;DHT22;41913;51.030;3.706;2023-03-01T03:51:01;17.30;67.90
56046;DHT22;41913;51.030;3.706;2023-03-01T03:53:28;17.30;67.90
56046;DHT22;41913;51.030;3.706;2023-03-01T03:55:55;17.30;67.90
56046;DHT22;41913;51.030;3.706;2023-03-01T03:58:22;17.30;67.90
56046;DHT22;41913;51.030;3.706;2023-03-01T04:00:52;17.30;67.90
56046;DHT22;41913;51.030;3.706;2023-03-01T04:03:19;17.30;67.90
56046;DHT22;41913;51.030;3.706;2023-03-01T04:05:46;17.30;67.90
56046;DHT22;41913;51.030;3.706;2023-03-01T04:08:13;17.30;67.90
56046;DHT22;41913;51.030;3.706;2023-03-01T04:10:41;17.30;67.90
56046;DHT22;41913;51.030;3.706;2023-03-01T04:13:09;17.30;67.90
56046;DHT22;41913;51.030;3.706;2023-03-01T04:15:36;17.20;67.80
56046;DHT22;41913;51.030;3.706;2023-03-01T04:18:02;17.20;67.80
56046;DHT22;41913;51.030;3.706;2023-03-01T04:20:30;17.20;67.80
56046;DHT22;41913;51.030;3.706;2023-03-01T04:25:24;17.20;67.80
56046;DHT22;41913;51.030;3.706;2023-03-01T04:27:50;17.20;67.80
56046;DHT22;41913;51.030;3.706;2023-03-01T04:30:15;17.20;67.80
56046;DHT22;41913;51.030;3.706;2023-03-01T04:32:41;17.20;67.80
56046;DHT22;41913;51.030;3.706;2023-03-01T04:35:07;17.20;67.90
56046;DHT22;41913;51.030;3.706;2023-03-01T04:37:33;17.20;67.80
56046;DHT22;41913;51.030;3.706;2023-03-01T04:40:01;17.20;67.90
56046;DHT22;41913;51.030;3.706;2023-03-01T04:42:37;17.20;68.20
56046;DHT22;41913;51.030;3.706;2023-03-01T04:45:03;17.20;67.90
56046;DHT22;41913;51.030;3.706;2023-03-01T04:47:39;17.20;67.90
56046;DHT22;41913;51.030;3.706;2023-03-01T04:50:05;17.10;67.90
56046;DHT22;41913;51.030;3.706;2023-03-01T04:52:31;17.10;67.80
56046;DHT22;41913;51.030;3.706;2023-03-01T04:54:57;17.10;67.90
56046;DHT22;41913;51.030;3.706;2023-03-01T04:57:22;17.10;67.90
56046;DHT22;41913;51.030;3.706;2023-03-01T04:59:48;17.10;67.80
56046;DHT22;41913;51.030;3.706;2023-03-01T05:02:13;17.10;67.90
56046;DHT22;41913;51.030;3.706;2023-03-01T05:04:39;17.10;67.80
56046;DHT22;41913;51.030;3.706;2023-03-01T05:07:05;17.10;67.90
56046;DHT22;41913;51.030;3.706;2023-03-01T05:09:30;17.10;67.80
56046;DHT22;41913;51.030;3.706;2023-03-01T05:11:56;17.10;67.90
56046;DHT22;41913;51.030;3.706;2023-03-01T05:14:22;17.10;67.80
56046;DHT22;41913;51.030;3.706;2023-03-01T05:16:48;17.10;67.90
56046;DHT22;41913;51.030;3.706;2023-03-01T05:19:14;17.10;67.80
56046;DHT22;41913;51.030;3.706;2023-03-01T05:21:48;17.10;67.80
56046;DHT22;41913;51.030;3.706;2023-03-01T05:24:38;17.10;67.80
56046;DHT22;41913;51.030;3.706;2023-03-01T05:27:04;17.00;67.80
56046;DHT22;41913;51.030;3.706;2023-03-01T05:29:31;17.00;67.80
56046;DHT22;41913;51.030;3.706;2023-03-01T05:32:01;17.00;67.80
56046;DHT22;41913;51.030;3.706;2023-03-01T05:34:33;17.00;67.80
56046;DHT22;41913;51.030;3.706;2023-03-01T05:36:59;17.00;67.80
56046;DHT22;41913;51.030;3.706;2023-03-01T05:39:26;17.00;67.70
56046;DHT22;41913;51.030;3.706;2023-03-01T05:41:58;17.00;67.80
56046;DHT22;41913;51.030;3.706;2023-03-01T05:44:24;17.00;67.80
56046;DHT22;41913;51.030;3.706;2023-03-01T05:46:51;17.00;67.80
56046;DHT22;41913;51.030;3.706;2023-03-01T05:49:17;17.00;67.70
56046;DHT22;41913;51.030;3.706;2023-03-01T05:51:48;16.90;68.00
56046;DHT22;41913;51.030;3.706;2023-03-01T05:54:14;17.00;67.70
56046;DHT22;41913;51.030;3.706;2023-03-01T05:56:40;17.00;67.70
56046;DHT22;41913;51.030;3.706;2023-03-01T05:59:06;17.00;67.70
56046;DHT22;41913;51.030;3.706;2023-03-01T06:01:32;17.00;67.70
56046;DHT22;41913;51.030;3.706;2023-03-01T06:03:58;17.00;67.70
56046;DHT22;41913;51.030;3.706;2023-03-01T06:06:24;17.00;67.70
56046;DHT22;41913;51.030;3.706;2023-03-01T06:08:51;17.00;67.60
56046;DHT22;41913;51.030;3.706;2023-03-01T06:11:17;16.90;67.60
56046;DHT22;41913;51.030;3.706;2023-03-01T06:13:44;16.90;67.50
56046;DHT22;41913;51.030;3.706;2023-03-01T06:16:10;16.90;67.50
56046;DHT22;41913;51.030;3.706;2023-03-01T06:18:37;16.90;67.50
56046;DHT22;41913;51.030;3.706;2023-03-01T06:21:03;16.90;67.50
56046;DHT22;41913;51.030;3.706;2023-03-01T06:23:29;16.90;67.40
56046;DHT22;41913;51.030;3.706;2023-03-01T06:25:55;16.90;67.40
56046;DHT22;41913;51.030;3.706;2023-03-01T06:28:21;16.90;67.40
56046;DHT22;41913;51.030;3.706;2023-03-01T06:30:46;17.00;67.60
56046;DHT22;41913;51.030;3.706;2023-03-01T06:33:12;17.00;67.50
56046;DHT22;41913;51.030;3.706;2023-03-01T06:35:38;17.10;67.60
56046;DHT22;41913;51.030;3.706;2023-03-01T06:38:04;17.20;67.80
56046;DHT22;41913;51.030;3.706;2023-03-01T06:40:31;17.20;68.40
56046;DHT22;41913;51.030;3.706;2023-03-01T06:42:57;17.40;69.70
56046;DHT22;41913;51.030;3.706;2023-03-01T06:45:24;17.50;70.80
56046;DHT22;41913;51.030;3.706;2023-03-01T06:47:50;17.70;71.40
56046;DHT22;41913;51.030;3.706;2023-03-01T06:50:16;17.80;71.80
56046;DHT22;41913;51.030;3.706;2023-03-01T06:52:42;17.90;72.00
56046;DHT22;41913;51.030;3.706;2023-03-01T06:55:11;18.00;72.10
56046;DHT22;41913;51.030;3.706;2023-03-01T06:57:37;18.00;72.00
56046;DHT22;41913;51.030;3.706;2023-03-01T07:00:06;18.10;71.90
56046;DHT22;41913;51.030;3.706;2023-03-01T07:02:32;18.20;71.90
56046;DHT22;41913;51.030;3.706;2023-03-01T07:04:58;18.20;71.70
56046;DHT22;41913;51.030;3.706;2023-03-01T07:07:24;18.20;71.50
56046;DHT22;41913;51.030;3.706;2023-03-01T07:09:50;18.30;71.30
56046;DHT22;41913;51.030;3.706;2023-03-01T07:12:16;18.40;71.10
56046;DHT22;41913;51.030;3.706;2023-03-01T07:14:44;18.40;70.80
56046;DHT22;41913;51.030;3.706;2023-03-01T07:17:09;18.50;70.50
56046;DHT22;41913;51.030;3.706;2023-03-01T07:19:35;18.60;70.10
56046;DHT22;41913;51.030;3.706;2023-03-01T07:22:01;18.60;69.50
56046;DHT22;41913;51.030;3.706;2023-03-01T07:24:27;18.70;69.10
56046;DHT22;41913;51.030;3.706;2023-03-01T07:26:52;18.70;68.50
56046;DHT22;41913;51.030;3.706;2023-03-01T07:29:19;18.80;68.00
56046;DHT22;41913;51.030;3.706;2023-03-01T07:31:45;18.90;67.60
56046;DHT22;41913;51.030;3.706;2023-03-01T07:34:11;18.80;67.10
56046;DHT22;41913;51.030;3.706;2023-03-01T07:36:37;18.90;66.80
56046;DHT22;41913;51.030;3.706;2023-03-01T07:39:04;19.00;66.50
56046;DHT22;41913;51.030;3.706;2023-03-01T07:41:30;19.10;66.20
56046;DHT22;41913;51.030;3.706;2023-03-01T07:43:56;19.10;65.90
56046;DHT22;41913;51.030;3.706;2023-03-01T07:46:22;19.10;65.60
56046;DHT22;41913;51.030;3.706;2023-03-01T07:48:47;19.10;65.30
56046;DHT22;41913;51.030;3.706;2023-03-01T07:51:13;19.10;65.10
56046;DHT22;41913;51.030;3.706;2023-03-01T07:53:39;19.10;64.90
56046;DHT22;41913;51.030;3.706;2023-03-01T07:56:07;19.10;64.80
56046;DHT22;41913;51.030;3.706;2023-03-01T07:58:41;19.10;64.60
56046;DHT22;41913;51.030;3.706;2023-03-01T08:01:10;19.10;64.40
56046;DHT22;41913;51.030;3.706;2023-03-01T08:03:37;19.20;64.40
56046;DHT22;41913;51.030;3.706;2023-03-01T08:06:04;19.20;64.20
56046;DHT22;41913;51.030;3.706;2023-03-01T08:08:31;19.30;64.30
56046;DHT22;41913;51.030;3.706;2023-03-01T08:10:58;19.30;64.40
56046;DHT22;41913;51.030;3.706;2023-03-01T08:13:24;19.40;64.70
56046;DHT22;41913;51.030;3.706;2023-03-01T08:15:51;19.50;64.90
56046;DHT22;41913;51.030;3.706;2023-03-01T08:18:17;19.60;65.10
56046;DHT22;41913;51.030;3.706;2023-03-01T08:20:44;19.70;65.40
56046;DHT22;41913;51.030;3.706;2023-03-01T08:23:10;19.80;65.50
56046;DHT22;41913;51.030;3.706;2023-03-01T08:25:36;19.90;65.50
56046;DHT22;41913;51.030;3.706;2023-03-01T08:28:02;19.90;65.40
56046;DHT22;41913;51.030;3.706;2023-03-01T08:30:28;20.00;65.40
56046;DHT22;41913;51.030;3.706;2023-03-01T08:32:54;20.10;65.30
56046;DHT22;41913;51.030;3.706;2023-03-01T08:35:20;20.10;65.40
56046;DHT22;41913;51.030;3.706;2023-03-01T08:37:46;20.10;65.60
56046;DHT22;41913;51.030;3.706;2023-03-01T08:40:12;20.10;65.80
56046;DHT22;41913;51.030;3.706;2023-03-01T08:42:40;20.10;65.90
56046;DHT22;41913;51.030;3.706;2023-03-01T08:45:07;20.20;66.00
56046;DHT22;41913;51.030;3.706;2023-03-01T08:47:33;20.20;66.00
56046;DHT22;41913;51.030;3.706;2023-03-01T08:49:59;20.20;65.90
56046;DHT22;41913;51.030;3.706;2023-03-01T08:52:26;20.30;66.50
56046;DHT22;41913;51.030;3.706;2023-03-01T08:54:52;20.30;65.90
56046;DHT22;41913;51.030;3.706;2023-03-01T08:57:18;20.40;65.90
56046;DHT22;41913;51.030;3.706;2023-03-01T08:59:44;20.50;65.80
56046;DHT22;41913;51.030;3.706;2023-03-01T09:02:16;20.60;65.70
56046;DHT22;41913;51.030;3.706;2023-03-01T09:04:42;20.60;65.60
56046;DHT22;41913;51.030;3.706;2023-03-01T09:07:08;20.70;65.60
56046;DHT22;41913;51.030;3.706;2023-03-01T09:09:34;20.70;65.50
56046;DHT22;41913;51.030;3.706;2023-03-01T09:12:01;20.80;65.50
56046;DHT22;41913;51.030;3.706;2023-03-01T09:14:26;20.80;65.40
56046;DHT22;41913;51.030;3.706;2023-03-01T09:16:52;20.80;65.30
56046;DHT22;41913;51.030;3.706;2023-03-01T09:19:18;20.80;65.30
56046;DHT22;41913;51.030;3.706;2023-03-01T09:21:44;20.80;65.40
56046;DHT22;41913;51.030;3.706;2023-03-01T09:24:22;20.80;65.40
56046;DHT22;41913;51.030;3.706;2023-03-01T09:26:48;20.80;65.40
56046;DHT22;41913;51.030;3.706;2023-03-01T09:29:15;20.80;65.40
56046;DHT22;41913;51.030;3.706;2023-03-01T09:31:41;20.80;65.40
56046;DHT22;41913;51.030;3.706;2023-03-01T09:34:09;20.90;65.40
56046;DHT22;41913;51.030;3.706;2023-03-01T09:36:35;20.90;65.30
56046;DHT22;41913;51.030;3.706;2023-03-01T09:39:03;20.90;65.20
56046;DHT22;41913;51.030;3.706;2023-03-01T09:41:45;21.00;65.20
56046;DHT22;41913;51.030;3.706;2023-03-01T09:47:26;21.10;65.00
56046;DHT22;41913;51.030;3.706;2023-03-01T09:52:41;21.20;64.90
56046;DHT22;41913;51.030;3.706;2023-03-01T09:55:14;21.20;64.80
56046;DHT22;41913;51.030;3.706;2023-03-01T09:57:50;21.20;64.80
56046;DHT22;41913;51.030;3.706;2023-03-01T10:06:31;21.10;64.70
56046;DHT22;41913;51.030;3.706;2023-03-01T10:09:07;21.20;64.70
56046;DHT22;41913;51.030;3.706;2023-03-01T10:11:43;21.20;64.70
56046;DHT22;41913;51.030;3.706;2023-03-01T10:17:38;21.20;64.60
56046;DHT22;41913;51.030;3.706;2023-03-01T10:20:46;21.30;64.60
56046;DHT22;41913;51.030;3.706;2023-03-01T10:23:13;21.30;64.30
56046;DHT22;41913;51.030;3.706;2023-03-01T10:26:16;21.30;63.80
56046;DHT22;41913;51.030;3.706;2023-03-01T10:29:01;21.20;63.40
56046;DHT22;41913;51.030;3.706;2023-03-01T10:31:43;21.10;63.00
56046;DHT22;41913;51.030;3.706;2023-03-01T10:34:16;21.00;62.80
56046;DHT22;41913;51.030;3.706;2023-03-01T10:36:43;21.00;62.60
56046;DHT22;41913;51.030;3.706;2023-03-01T10:39:21;20.90;62.70
56046;DHT22;41913;51.030;3.706;2023-03-01T10:41:57;20.90;62.80
56046;DHT22;41913;51.030;3.706;2023-03-01T10:44:47;20.90;62.80
56046;DHT22;41913;51.030;3.706;2023-03-01T10:47:27;21.00;62.80
56046;DHT22;41913;51.030;3.706;2023-03-01T10:49:59;21.00;62.70
56046;DHT22;41913;51.030;3.706;2023-03-01T10:52:28;21.00;62.70
56046;DHT22;41913;51.030;3.706;2023-03-01T10:55:01;21.10;62.60
56046;DHT22;41913;51.030;3.706;2023-03-01T10:57:34;21.10;62.40
56046;DHT22;41913;51.030;3.706;2023-03-01T11:00:25;21.10;62.30
56046;DHT22;41913;51.030;3.706;2023-03-01T11:03:08;21.20;62.30
56046;DHT22;41913;51.030;3.706;2023-03-01T11:05:35;21.20;62.10
56046;DHT22;41913;51.030;3.706;2023-03-01T11:08:03;21.20;62.00
56046;DHT22;41913;51.030;3.706;2023-03-01T11:10:34;21.30;61.90
56046;DHT22;41913;51.030;3.706;2023-03-01T11:13:17;21.20;61.80
56046;DHT22;41913;51.030;3.706;2023-03-01T11:16:01;21.20;61.80
56046;DHT22;41913;51.030;3.706;2023-03-01T11:18:29;21.20;61.70
56046;DHT22;41913;51.030;3.706;2023-03-01T11:20:58;21.20;61.70
56046;DHT22;41913;51.030;3.706;2023-03-01T11:23:24;21.20;61.60
56046;DHT22;41913;51.030;3.706;2023-03-01T11:26:05;21.20;61.60
56046;DHT22;41913;51.030;3.706;2023-03-01T11:28:34;21.20;61.50
56046;DHT22;41913;51.030;3.706;2023-03-01T11:31:06;21.20;61.50
56046;DHT22;41913;51.030;3.706;2023-03-01T11:42:00;21.40;61.20
56046;DHT22;41913;51.030;3.706;2023-03-01T11:44:28;21.40;61.60
56046;DHT22;41913;51.030;3.706;2023-03-01T11:57:42;21.20;60.60
56046;DHT22;41913;51.030;3.706;2023-03-01T12:00:36;21.20;60.60
56046;DHT22;41913;51.030;3.706;2023-03-01T12:09:16;21.20;60.80
56046;DHT22;41913;51.030;3.706;2023-03-01T12:17:05;21.20;61.20
56046;DHT22;41913;51.030;3.706;2023-03-01T12:19:39;21.20;61.20
56046;DHT22;41913;51.030;3.706;2023-03-01T12:31:15;21.20;61.50
56046;DHT22;41913;51.030;3.706;2023-03-01T12:42:16;21.20;62.00
56046;DHT22;41913;51.030;3.706;2023-03-01T12:44:51;21.10;62.00
56046;DHT22;41913;51.030;3.706;2023-03-01T12:50:23;21.20;62.00
56046;DHT22;41913;51.030;3.706;2023-03-01T12:52:55;21.20;62.00
56046;DHT22;41913;51.030;3.706;2023-03-01T12:55:29;21.20;62.10
56046;DHT22;41913;51.030;3.706;2023-03-01T13:06:19;21.30;62.00
56046;DHT22;41913;51.030;3.706;2023-03-01T13:08:56;21.30;62.00
56046;DHT22;41913;51.030;3.706;2023-03-01T13:11:26;21.30;62.10
56046;DHT22;41913;51.030;3.706;2023-03-01T13:16:53;21.20;62.20
56046;DHT22;41913;51.030;3.706;2023-03-01T13:19:25;21.20;62.30
56046;DHT22;41913;51.030;3.706;2023-03-01T13:21:53;21.20;62.20
56046;DHT22;41913;51.030;3.706;2023-03-01T13:24:41;21.20;62.20
56046;DHT22;41913;51.030;3.706;2023-03-01T13:29:52;21.20;62.10
56046;DHT22;41913;51.030;3.706;2023-03-01T13:35:40;21.30;62.00
56046;DHT22;41913;51.030;3.706;2023-03-01T13:37:49;21.30;61.90
56046;DHT22;41913;51.030;3.706;2023-03-01T13:42:49;21.30;61.80
56046;DHT22;41913;51.030;3.706;2023-03-01T13:45:33;21.30;61.80
56046;DHT22;41913;51.030;3.706;2023-03-01T13:48:04;21.30;61.90
56046;DHT22;41913;51.030;3.706;2023-03-01T13:50:38;21.30;62.00
56046;DHT22;41913;51.030;3.706;2023-03-01T13:53:14;21.30;62.00
56046;DHT22;41913;51.030;3.706;2023-03-01T13:55:55;21.30;62.10
56046;DHT22;41913;51.030;3.706;2023-03-01T13:58:28;21.40;62.40
56046;DHT22;41913;51.030;3.706;2023-03-01T14:01:05;21.40;62.60
56046;DHT22;41913;51.030;3.706;2023-03-01T14:03:33;21.40;62.70
56046;DHT22;41913;51.030;3.706;2023-03-01T14:06:08;21.40;62.70
56046;DHT22;41913;51.030;3.706;2023-03-01T14:08:37;21.40;62.60
56046;DHT22;41913;51.030;3.706;2023-03-01T14:14:54;21.50;62.50
56046;DHT22;41913;51.030;3.706;2023-03-01T14:19:57;21.50;62.20
56046;DHT22;41913;51.030;3.706;2023-03-01T14:22:29;21.50;62.30
56046;DHT22;41913;51.030;3.706;2023-03-01T14:25:16;21.50;62.40
56046;DHT22;41913;51.030;3.706;2023-03-01T14:27:42;21.50;62.40
56046;DHT22;41913;51.030;3.706;2023-03-01T14:30:14;21.50;62.50
56046;DHT22;41913;51.030;3.706;2023-03-01T14:32:40;21.50;62.40
56046;DHT22;41913;51.030;3.706;2023-03-01T14:35:23;21.60;62.40
56046;DHT22;41913;51.030;3.706;2023-03-01T14:37:49;21.60;62.30
56046;DHT22;41913;51.030;3.706;2023-03-01T14:40:44;21.70;62.30
56046;DHT22;41913;51.030;3.706;2023-03-01T14:43:12;21.70;62.20
56046;DHT22;41913;51.030;3.706;2023-03-01T14:45:47;21.70;61.90
56046;DHT22;41913;51.030;3.706;2023-03-01T14:48:13;21.70;61.80
56046;DHT22;41913;51.030;3.706;2023-03-01T14:50:42;21.70;61.70
56046;DHT22;41913;51.030;3.706;2023-03-01T14:53:25;21.70;61.60
56046;DHT22;41913;51.030;3.706;2023-03-01T14:55:56;21.70;61.60
56046;DHT22;41913;51.030;3.706;2023-03-01T14:58:26;21.70;61.70
56046;DHT22;41913;51.030;3.706;2023-03-01T15:00:58;21.60;61.70
56046;DHT22;41913;51.030;3.706;2023-03-01T15:03:34;21.70;61.70
56046;DHT22;41913;51.030;3.706;2023-03-01T15:06:02;21.60;61.50
56046;DHT22;41913;51.030;3.706;2023-03-01T15:08:29;21.70;61.40
56046;DHT22;41913;51.030;3.706;2023-03-01T15:11:17;21.70;61.30
56046;DHT22;41913;51.030;3.706;2023-03-01T15:13:44;21.70;61.20
56046;DHT22;41913;51.030;3.706;2023-03-01T15:16:12;21.70;61.00
56046;DHT22;41913;51.030;3.706;2023-03-01T15:18:45;21.70;60.90
56046;DHT22;41913;51.030;3.706;2023-03-01T15:21:25;21.80;60.80
56046;DHT22;41913;51.030;3.706;2023-03-01T15:23:56;21.80;61.40
56046;DHT22;41913;51.030;3.706;2023-03-01T15:26:35;21.70;60.90
56046;DHT22;41913;51.030;3.706;2023-03-01T15:29:02;21.70;61.00
56046;DHT22;41913;51.030;3.706;2023-03-01T15:31:34;21.70;61.10
56046;DHT22;41913;51.030;3.706;2023-03-01T15:34:29;21.70;61.20
56046;DHT22;41913;51.030;3.706;2023-03-01T15:36:55;21.70;61.20
56046;DHT22;41913;51.030;3.706;2023-03-01T15:39:33;21.70;61.30
56046;DHT22;41913;51.030;3.706;2023-03-01T15:45:22;21.70;61.30
56046;DHT22;41913;51.030;3.706;2023-03-01T15:47:58;21.80;61.30
56046;DHT22;41913;51.030;3.706;2023-03-01T15:50:34;21.80;61.40
56046;DHT22;41913;51.030;3.706;2023-03-01T15:53:03;21.90;61.40
56046;DHT22;41913;51.030;3.706;2023-03-01T15:55:31;21.90;61.30
56046;DHT22;41913;51.030;3.706;2023-03-01T15:58:21;21.90;61.30
56046;DHT22;41913;51.030;3.706;2023-03-01T16:00:48;21.90;61.30
56046;DHT22;41913;51.030;3.706;2023-03-01T16:03:17;21.90;61.40
56046;DHT22;41913;51.030;3.706;2023-03-01T16:05:47;21.90;61.40
56046;DHT22;41913;51.030;3.706;2023-03-01T16:08:14;21.80;61.40
56046;DHT22;41913;51.030;3.706;2023-03-01T16:10:41;21.90;61.40
56046;DHT22;41913;51.030;3.706;2023-03-01T16:13:10;21.80;61.30
56046;DHT22;41913;51.030;3.706;2023-03-01T16:15:36;21.90;61.20
56046;DHT22;41913;51.030;3.706;2023-03-01T16:18:02;21.90;61.10
56046;DHT22;41913;51.030;3.706;2023-03-01T16:20:29;21.90;60.90
56046;DHT22;41913;51.030;3.706;2023-03-01T16:22:58;22.00;60.90
56046;DHT22;41913;51.030;3.706;2023-03-01T16:25:25;22.00;60.70
56046;DHT22;41913;51.030;3.706;2023-03-01T16:27:51;22.00;60.60
56046;DHT22;41913;51.030;3.706;2023-03-01T16:30:20;22.00;60.60
56046;DHT22;41913;51.030;3.706;2023-03-01T16:32:47;22.00;60.50
56046;DHT22;41913;51.030;3.706;2023-03-01T16:35:16;21.90;60.40
56046;DHT22;41913;51.030;3.706;2023-03-01T16:37:42;21.90;60.40
56046;DHT22;41913;51.030;3.706;2023-03-01T16:40:19;21.90;60.50
56046;DHT22;41913;51.030;3.706;2023-03-01T16:42:47;21.90;60.40
56046;DHT22;41913;51.030;3.706;2023-03-01T16:45:14;21.90;60.40
56046;DHT22;41913;51.030;3.706;2023-03-01T16:47:40;21.90;60.30
56046;DHT22;41913;51.030;3.706;2023-03-01T16:50:06;21.90;60.30
56046;DHT22;41913;51.030;3.706;2023-03-01T16:52:33;22.00;60.40
56046;DHT22;41913;51.030;3.706;2023-03-01T16:55:01;22.00;60.40
56046;DHT22;41913;51.030;3.706;2023-03-01T16:57:28;22.00;60.30
56046;DHT22;41913;51.030;3.706;2023-03-01T16:59:54;22.00;60.20
56046;DHT22;41913;51.030;3.706;2023-03-01T17:02:19;22.00;60.10
56046;DHT22;41913;51.030;3.706;2023-03-01T17:04:55;22.10;60.10
56046;DHT22;41913;51.030;3.706;2023-03-01T17:07:22;22.00;60.10
56046;DHT22;41913;51.030;3.706;2023-03-01T17:09:48;22.00;60.10
56046;DHT22;41913;51.030;3.706;2023-03-01T17:12:14;22.00;60.10
56046;DHT22;41913;51.030;3.706;2023-03-01T17:14:42;22.00;60.30
56046;DHT22;41913;51.030;3.706;2023-03-01T17:17:09;22.00;60.30
56046;DHT22;41913;51.030;3.706;2023-03-01T17:19:35;22.00;60.30
56046;DHT22;41913;51.030;3.706;2023-03-01T17:22:07;21.90;60.40
56046;DHT22;41913;51.030;3.706;2023-03-01T17:24:34;21.90;60.60
56046;DHT22;41913;51.030;3.706;2023-03-01T17:26:59;21.90;60.70
56046;DHT22;41913;51.030;3.706;2023-03-01T17:29:25;21.80;60.80
56046;DHT22;41913;51.030;3.706;2023-03-01T17:31:51;21.80;60.90
56046;DHT22;41913;51.030;3.706;2023-03-01T17:34:19;21.80;61.00
56046;DHT22;41913;51.030;3.706;2023-03-01T17:36:45;21.80;61.20
56046;DHT22;41913;51.030;3.706;2023-03-01T17:39:12;21.70;61.20